Los Angeles, California
Traffic Map
Current Weather Conditions
Los Angeles, California
Clear
Clear
53°
Feels Like: 53°
Wind Chill: 53° Ceiling: Unl
Heat Index: 53° Visibility: 8mi
Dew Point: 48° Wind: 0mph
Humidity: 83% Direction: ° ()
Pressure: 30.16in Gusts: 0mph
Raw Report DataKCQT 180647Z AUTO 00000KT 8SM CLR 12/09 A3016 RMK AO2 SLP213 T01170089
Traffic Incident Summary
Active as of:
Severity:
Category:
InformationThere was an issue retrieving the traffic information for this location. Please try a different location or try again shortly.
Advertisements
Track Severe Weather on mobile